createdAt,value
2018-11-14T00:00:03.302Z,4.73
2018-11-14T00:02:31.647Z,4.30
2018-11-14T00:04:59.953Z,3.63
2018-11-14T00:07:28.260Z,3.77
2018-11-14T00:09:56.579Z,5.23
2018-11-14T00:12:24.897Z,3.80
2018-11-14T00:14:53.287Z,4.83
2018-11-14T00:17:21.589Z,5.00
2018-11-14T00:19:50.025Z,4.60
2018-11-14T00:22:18.360Z,5.33
2018-11-14T00:24:46.732Z,4.80
2018-11-14T00:27:14.942Z,4.30
2018-11-14T00:29:43.327Z,10.77
2018-11-14T00:32:11.626Z,15.23
2018-11-14T00:34:40.020Z,9.50
2018-11-14T00:37:08.309Z,8.00
2018-11-14T00:39:36.606Z,5.80
2018-11-14T00:42:05.166Z,6.90
2018-11-14T00:44:33.511Z,6.73
2018-11-14T00:47:02.067Z,5.67
2018-11-14T00:49:30.380Z,4.70
2018-11-14T00:51:58.652Z,4.03
2018-11-14T00:54:27.004Z,3.80
2018-11-14T00:56:55.364Z,4.43
2018-11-14T00:59:24.295Z,4.57
2018-11-14T01:01:52.589Z,3.67
2018-11-14T01:04:21.307Z,3.87
2018-11-14T01:06:49.640Z,4.47
2018-11-14T01:09:18.121Z,3.90
2018-11-14T01:11:46.353Z,3.60
2018-11-14T01:14:14.715Z,3.80
2018-11-14T01:16:43.046Z,4.00
2018-11-14T01:19:11.343Z,3.67
2018-11-14T01:21:39.715Z,3.90
2018-11-14T01:24:08.555Z,3.73
2018-11-14T01:26:36.847Z,4.77
2018-11-14T01:29:05.348Z,3.57
2018-11-14T01:31:33.798Z,3.40
2018-11-14T01:34:02.161Z,3.30
2018-11-14T01:36:30.399Z,3.50
2018-11-14T01:38:58.743Z,4.00
2018-11-14T01:41:27.095Z,3.70
2018-11-14T01:43:55.414Z,3.73
2018-11-14T01:46:23.733Z,3.30
2018-11-14T01:48:52.043Z,3.83
2018-11-14T01:51:20.368Z,4.50
2018-11-14T01:53:48.674Z,3.43
2018-11-14T01:56:16.952Z,3.13
2018-11-14T02:01:13.838Z,3.40
2018-11-14T02:03:42.135Z,3.57
2018-11-14T02:06:10.461Z,3.60
2018-11-14T02:08:38.759Z,3.33
2018-11-14T02:11:07.062Z,4.07
2018-11-14T02:13:35.391Z,3.50
2018-11-14T02:16:03.683Z,3.50
2018-11-14T02:18:31.982Z,3.30
2018-11-14T02:21:00.289Z,3.50
2018-11-14T02:23:28.573Z,3.53
2018-11-14T02:25:56.890Z,3.37
2018-11-14T02:28:25.193Z,4.03
2018-11-14T02:30:53.531Z,3.53
2018-11-14T02:33:21.814Z,3.30
2018-11-14T02:35:50.141Z,3.67
2018-11-14T02:38:18.430Z,3.73
2018-11-14T02:40:46.752Z,3.70
2018-11-14T02:43:15.051Z,3.87
2018-11-14T02:45:43.425Z,3.47
2018-11-14T02:48:11.730Z,3.60
2018-11-14T02:50:40.032Z,3.10
2018-11-14T02:53:08.312Z,3.37
2018-11-14T02:55:36.655Z,4.07
2018-11-14T02:58:05.194Z,3.43
2018-11-14T03:00:33.511Z,3.50
2018-11-14T03:03:01.829Z,3.30
2018-11-14T03:05:30.148Z,3.60
2018-11-14T03:07:58.467Z,3.50
2018-11-14T03:10:26.795Z,3.00
2018-11-14T03:12:55.097Z,2.83
2018-11-14T03:15:23.882Z,3.50
2018-11-14T03:17:52.225Z,3.50
2018-11-14T03:20:21.651Z,3.60
2018-11-14T03:22:49.962Z,3.43
2018-11-14T03:25:18.254Z,3.43
2018-11-14T03:27:46.573Z,3.37
2018-11-14T03:30:16.645Z,3.30
2018-11-14T03:32:45.414Z,3.67
2018-11-14T03:35:14.366Z,3.87
2018-11-14T03:37:42.712Z,3.60
2018-11-14T03:40:14.083Z,3.20
2018-11-14T03:42:42.500Z,2.97
2018-11-14T03:45:12.493Z,3.03
2018-11-14T03:47:41.334Z,2.90
2018-11-14T03:50:09.984Z,3.17
2018-11-14T03:52:38.332Z,4.00
2018-11-14T03:55:07.064Z,4.27
2018-11-14T03:57:35.445Z,3.83
2018-11-14T04:00:04.624Z,4.10
2018-11-14T04:02:32.947Z,4.10
2018-11-14T04:05:01.290Z,3.80
2018-11-14T04:07:29.580Z,3.90
2018-11-14T04:09:57.873Z,4.57
2018-11-14T04:12:26.276Z,4.00
2018-11-14T04:14:54.550Z,4.37
2018-11-14T04:17:22.864Z,4.10
2018-11-14T04:19:51.139Z,5.30
2018-11-14T04:22:19.479Z,9.70
2018-11-14T04:24:47.772Z,9.37
2018-11-14T04:27:16.068Z,8.27
2018-11-14T04:29:44.376Z,7.67
2018-11-14T04:32:12.736Z,5.30
2018-11-14T04:34:41.066Z,6.57
2018-11-14T04:37:09.414Z,7.23
2018-11-14T04:39:37.776Z,6.47
2018-11-14T04:42:06.102Z,5.77
2018-11-14T04:44:44.025Z,7.63
2018-11-14T04:47:15.611Z,8.43
2018-11-14T04:49:47.769Z,12.60
2018-11-14T04:52:18.752Z,8.47
2018-11-14T04:54:49.849Z,5.53
2018-11-14T04:57:20.690Z,5.20
2018-11-14T04:59:52.205Z,4.97
2018-11-14T05:02:23.590Z,6.50
2018-11-14T05:04:54.607Z,6.27
2018-11-14T05:07:25.458Z,6.03
2018-11-14T05:09:59.311Z,6.30
2018-11-14T05:12:30.599Z,4.80
2018-11-14T05:15:02.716Z,5.17
2018-11-14T05:17:33.578Z,4.30
2018-11-14T05:20:05.705Z,4.47
2018-11-14T05:22:37.898Z,4.40
2018-11-14T05:25:10.294Z,4.80
2018-11-14T05:27:43.717Z,4.43
2018-11-14T05:30:18.927Z,4.47
2018-11-14T05:32:50.730Z,4.90
2018-11-14T05:35:24.330Z,4.60
2018-11-14T05:37:56.818Z,3.70
2018-11-14T05:40:25.156Z,3.47
2018-11-14T05:42:53.716Z,3.93
2018-11-14T05:45:24.598Z,3.47
2018-11-14T05:47:53.037Z,4.53
2018-11-14T05:50:22.224Z,4.07
2018-11-14T05:52:50.589Z,3.30
2018-11-14T05:55:19.066Z,3.43
2018-11-14T05:57:47.415Z,3.50
2018-11-14T06:00:21.623Z,4.40
2018-11-14T06:02:49.936Z,4.17
2018-11-14T06:05:18.356Z,3.93
2018-11-14T06:07:46.664Z,4.97
2018-11-14T06:10:15.017Z,4.23
2018-11-14T06:12:43.761Z,4.10
2018-11-14T06:15:14.625Z,4.57
2018-11-14T06:17:43.940Z,12.97
2018-11-14T06:20:14.259Z,9.60
2018-11-14T06:22:43.407Z,5.83
2018-11-14T06:25:35.852Z,4.63
2018-11-14T06:28:05.445Z,5.07
2018-11-14T06:30:34.408Z,5.10
2018-11-14T06:33:04.163Z,5.17
2018-11-14T06:35:32.522Z,7.87
2018-11-14T06:38:00.875Z,7.67
2018-11-14T06:40:29.585Z,9.10
2018-11-14T06:42:58.496Z,10.23
2018-11-14T06:45:29.288Z,11.60
2018-11-14T06:47:59.085Z,25.37
2018-11-14T06:50:28.445Z,7.30
2018-11-14T06:53:01.655Z,6.80
2018-11-14T06:55:31.359Z,7.60
2018-11-14T06:57:59.993Z,7.73
2018-11-14T07:00:29.673Z,7.83
2018-11-14T07:02:58.708Z,7.30
2018-11-14T07:05:29.188Z,9.60
2018-11-14T07:07:58.194Z,7.90
2018-11-14T07:10:27.814Z,8.70
2018-11-14T07:13:01.635Z,9.03
2018-11-14T07:15:30.041Z,8.57
2018-11-14T07:17:58.473Z,10.50
2018-11-14T07:20:28.221Z,12.47
2018-11-14T07:22:56.539Z,15.17
2018-11-14T07:25:24.875Z,13.80
2018-11-14T07:27:53.391Z,13.50
2018-11-14T07:30:23.889Z,19.80
2018-11-14T07:32:54.749Z,18.80
2018-11-14T07:35:23.070Z,17.17
2018-11-14T07:38:56.034Z,17.67
2018-11-14T07:41:26.918Z,14.73
2018-11-14T07:43:55.503Z,14.77
2018-11-14T07:46:24.693Z,13.13
2018-11-14T07:48:53.024Z,13.80
2018-11-14T07:51:21.538Z,12.47
2018-11-14T07:53:49.936Z,12.13
2018-11-14T07:56:18.292Z,11.27
2018-11-14T07:58:46.619Z,9.77
2018-11-14T08:01:15.131Z,7.43
2018-11-14T08:03:43.756Z,6.87
2018-11-14T08:06:12.071Z,7.50
2018-11-14T08:08:40.418Z,5.83
2018-11-14T08:11:09.183Z,5.80
2018-11-14T08:13:39.091Z,4.53
2018-11-14T08:16:07.407Z,4.60
2018-11-14T08:18:35.787Z,4.37
2018-11-14T08:21:04.541Z,4.40
2018-11-14T08:23:32.886Z,4.93
2018-11-14T08:26:01.165Z,5.03
2018-11-14T08:28:29.505Z,4.70
2018-11-14T08:30:57.837Z,4.07
2018-11-14T08:33:26.224Z,4.10
2018-11-14T08:35:54.577Z,4.33
2018-11-14T08:38:22.903Z,7.77
2018-11-14T08:40:51.262Z,7.83
2018-11-14T08:43:19.697Z,7.23
2018-11-14T08:45:48.028Z,9.13
2018-11-14T08:48:16.380Z,9.70
2018-11-14T08:50:44.698Z,11.07
2018-11-14T08:53:12.999Z,10.10
2018-11-14T08:55:41.351Z,8.90
2018-11-14T08:58:11.178Z,5.13
2018-11-14T09:00:39.508Z,5.37
2018-11-14T09:03:09.331Z,4.53
2018-11-14T09:05:37.665Z,4.43
2018-11-14T09:08:06.039Z,4.60
2018-11-14T09:10:34.573Z,4.27
2018-11-14T09:13:02.973Z,4.40
2018-11-14T09:15:31.276Z,4.03
2018-11-14T09:17:59.744Z,3.97
2018-11-14T09:20:28.904Z,4.43
2018-11-14T09:22:57.187Z,4.33
2018-11-14T09:25:29.345Z,4.40
2018-11-14T09:27:58.140Z,4.30
2018-11-14T09:30:26.977Z,4.33
2018-11-14T09:32:55.699Z,4.37
2018-11-14T09:35:24.941Z,4.43
2018-11-14T09:37:54.286Z,4.60
2018-11-14T09:40:24.086Z,4.60
2018-11-14T09:42:52.418Z,4.20
2018-11-14T09:45:21.929Z,4.40
2018-11-14T09:47:50.246Z,4.27
2018-11-14T09:50:20.879Z,4.23
2018-11-14T09:52:52.669Z,4.80
2018-11-14T09:55:21.045Z,4.43
2018-11-14T09:57:49.387Z,4.80
2018-11-14T10:00:19.979Z,4.20
2018-11-14T10:02:49.761Z,4.00
2018-11-14T10:05:19.531Z,4.47
2018-11-14T10:07:47.975Z,3.90
2018-11-14T10:10:17.662Z,4.27
2018-11-14T10:12:45.965Z,4.80
2018-11-14T10:15:15.593Z,4.60
2018-11-14T10:17:44.806Z,4.33
2018-11-14T10:20:14.208Z,4.40
2018-11-14T10:22:43.047Z,4.43
2018-11-14T10:25:12.139Z,4.57
2018-11-14T10:27:41.295Z,4.40
2018-11-14T10:30:14.101Z,4.80
2018-11-14T10:32:43.238Z,4.67
2018-11-14T10:35:11.919Z,5.23
2018-11-14T10:37:40.449Z,4.93
2018-11-14T10:40:12.678Z,4.57
2018-11-14T10:42:41.581Z,5.00
2018-11-14T10:45:11.359Z,4.90
2018-11-14T10:47:39.722Z,4.60
2018-11-14T10:50:13.259Z,4.87
2018-11-14T10:52:41.595Z,4.83
2018-11-14T10:55:11.044Z,4.70
2018-11-14T10:57:39.691Z,4.20
2018-11-14T11:01:17.419Z,3.90
2018-11-14T11:03:51.191Z,4.40
2018-11-14T11:06:34.854Z,3.90
2018-11-14T11:09:09.910Z,4.30
2018-11-14T11:11:43.698Z,3.90
2018-11-14T11:14:17.232Z,4.83
2018-11-14T11:16:50.923Z,4.07
2018-11-14T11:19:21.423Z,4.10
2018-11-14T11:21:49.896Z,4.10
2018-11-14T11:24:19.512Z,4.00
2018-11-14T11:26:47.858Z,4.70
2018-11-14T11:29:16.244Z,4.10
2018-11-14T11:31:44.603Z,4.40
2018-11-14T11:34:13.327Z,4.40
2018-11-14T11:36:41.880Z,5.67
2018-11-14T11:39:14.607Z,5.23
2018-11-14T11:41:43.570Z,4.47
2018-11-14T11:44:12.016Z,4.40
2018-11-14T11:46:41.310Z,3.87
2018-11-14T11:49:10.054Z,4.03
2018-11-14T11:51:38.447Z,3.50
2018-11-14T11:54:07.374Z,4.60
2018-11-14T11:56:36.067Z,4.43
2018-11-14T11:59:04.819Z,4.40
2018-11-14T12:01:33.146Z,4.93
2018-11-14T12:04:01.502Z,5.00
2018-11-14T12:06:29.848Z,5.30
2018-11-14T12:08:58.288Z,5.40
2018-11-14T12:11:26.592Z,5.63
2018-11-14T12:13:55.091Z,5.97
2018-11-14T12:16:23.554Z,6.10
2018-11-14T12:18:51.920Z,6.37
2018-11-14T12:21:20.226Z,6.67
2018-11-14T12:23:48.583Z,12.07
2018-11-14T12:26:16.940Z,6.77
2018-11-14T12:28:45.373Z,6.17
2018-11-14T12:31:13.874Z,6.03
2018-11-14T12:33:42.177Z,6.30
2018-11-14T12:36:10.512Z,6.30
2018-11-14T12:38:38.904Z,6.17
2018-11-14T12:41:07.264Z,5.97
2018-11-14T12:43:35.654Z,6.17
2018-11-14T12:46:04.304Z,5.63
2018-11-14T12:48:32.664Z,5.80
2018-11-14T12:51:01.132Z,6.30
2018-11-14T12:53:29.403Z,5.93
2018-11-14T12:55:57.827Z,5.93
2018-11-14T12:58:26.176Z,6.33
2018-11-14T13:00:54.558Z,6.53
2018-11-14T13:03:22.835Z,6.07
2018-11-14T13:05:51.188Z,6.77
2018-11-14T13:08:19.507Z,6.30
2018-11-14T13:10:47.806Z,6.40
2018-11-14T13:13:16.096Z,5.53
2018-11-14T13:15:44.478Z,5.73
2018-11-14T13:18:15.656Z,5.47
2018-11-14T13:20:43.931Z,5.57
2018-11-14T13:23:12.300Z,5.83
2018-11-14T13:25:40.615Z,5.47
2018-11-14T13:28:09.092Z,5.67
2018-11-14T13:30:37.651Z,5.07
2018-11-14T13:33:06.342Z,5.10
2018-11-14T13:35:34.858Z,4.67
2018-11-14T13:38:03.243Z,5.03
2018-11-14T13:40:31.659Z,5.63
2018-11-14T13:43:00.338Z,4.93
2018-11-14T13:45:28.684Z,5.40
2018-11-14T13:47:57.079Z,5.47
2018-11-14T13:50:25.470Z,4.80
2018-11-14T13:52:53.773Z,5.10
2018-11-14T13:55:22.162Z,5.43
2018-11-14T13:57:51.687Z,5.57
2018-11-14T14:00:21.266Z,5.70
2018-11-14T14:02:50.512Z,6.13
2018-11-14T14:05:20.104Z,6.40
2018-11-14T14:07:48.566Z,6.50
2018-11-14T14:10:17.614Z,6.33
2018-11-14T14:12:47.296Z,5.83
2018-11-14T14:15:21.241Z,5.70
2018-11-14T14:17:50.088Z,5.70
2018-11-14T14:20:19.038Z,5.53
2018-11-14T14:22:47.559Z,7.10
2018-11-14T14:25:17.135Z,5.60
2018-11-14T14:27:45.494Z,5.30
2018-11-14T14:30:16.134Z,5.43
2018-11-14T14:32:45.112Z,5.60
2018-11-14T14:35:14.517Z,5.70
2018-11-14T14:37:42.884Z,7.77
2018-11-14T14:40:14.321Z,5.90
2018-11-14T14:42:42.759Z,6.27
2018-11-14T14:45:12.417Z,6.53
2018-11-14T14:47:40.822Z,6.80
2018-11-14T14:50:11.284Z,6.90
2018-11-14T14:52:40.435Z,6.77
2018-11-14T14:55:10.995Z,7.20
2018-11-14T14:57:39.435Z,7.33
2018-11-14T15:00:14.080Z,7.80
2018-11-14T15:02:43.039Z,7.33
2018-11-14T15:05:12.368Z,7.70
2018-11-14T15:07:40.867Z,7.87
2018-11-14T15:10:12.090Z,7.73
2018-11-14T15:12:40.670Z,7.10
2018-11-14T15:15:09.086Z,7.57
2018-11-14T15:17:37.658Z,7.23
2018-11-14T15:20:09.496Z,8.13
2018-11-14T15:22:38.189Z,7.70
2018-11-14T15:25:08.381Z,7.27
2018-11-14T15:27:38.071Z,8.63
2018-11-14T15:30:08.739Z,7.70
2018-11-14T15:32:37.498Z,7.20
2018-11-14T15:35:07.337Z,7.43
2018-11-14T15:37:36.146Z,6.90
2018-11-14T15:40:05.619Z,7.43
2018-11-14T15:42:35.657Z,8.17
2018-11-14T15:45:04.250Z,8.87
2018-11-14T15:47:33.452Z,9.40
2018-11-14T15:50:02.015Z,9.00
2018-11-14T15:52:30.356Z,9.17
2018-11-14T15:54:58.716Z,8.77
2018-11-14T15:57:27.027Z,7.87
2018-11-14T15:59:55.502Z,7.47
2018-11-14T16:02:23.880Z,8.93
2018-11-14T16:04:52.221Z,9.83
2018-11-14T16:07:20.704Z,11.10
2018-11-14T16:09:49.157Z,10.40
2018-11-14T16:12:17.665Z,9.90
2018-11-14T16:14:46.101Z,9.43
2018-11-14T16:17:14.501Z,8.97
2018-11-14T16:19:43.020Z,9.80
2018-11-14T16:22:11.337Z,9.67
2018-11-14T16:24:39.756Z,9.70
2018-11-14T16:27:08.026Z,8.97
2018-11-14T16:29:36.368Z,9.13
2018-11-14T16:32:04.716Z,7.37
2018-11-14T16:34:33.115Z,16.40
2018-11-14T16:37:01.387Z,17.17
2018-11-14T16:39:29.724Z,13.77
2018-11-14T16:41:58.082Z,12.03
2018-11-14T16:44:33.651Z,10.20
2018-11-14T16:47:02.208Z,9.93
2018-11-14T16:49:30.644Z,10.57
2018-11-14T16:51:58.955Z,10.43
2018-11-14T16:54:27.264Z,10.73
2018-11-14T16:56:55.804Z,10.97
2018-11-14T16:59:24.392Z,10.60
2018-11-14T17:01:52.673Z,10.97
2018-11-14T17:04:21.091Z,12.30
2018-11-14T17:06:49.700Z,11.23
2018-11-14T17:09:18.056Z,10.80
2018-11-14T17:11:46.437Z,10.57
2018-11-14T17:14:14.925Z,11.17
2018-11-14T17:16:43.221Z,11.70
2018-11-14T17:19:11.646Z,11.67
2018-11-14T17:21:40.134Z,11.33
2018-11-14T17:24:08.611Z,11.53
2018-11-14T17:26:37.193Z,11.70
2018-11-14T17:29:05.650Z,11.50
2018-11-14T17:31:34.036Z,12.30
2018-11-14T17:34:02.422Z,13.57
2018-11-14T17:36:30.774Z,11.87
2018-11-14T17:38:59.167Z,12.67
2018-11-14T17:41:27.761Z,11.30
2018-11-14T17:43:56.163Z,11.67
2018-11-14T17:46:25.038Z,11.27
2018-11-14T17:48:54.020Z,10.47
2018-11-14T17:51:22.338Z,11.40
2018-11-14T17:53:50.742Z,11.17
2018-11-14T17:56:19.151Z,10.60
2018-11-14T17:58:47.455Z,10.47
2018-11-14T18:01:20.788Z,10.17
2018-11-14T18:03:49.250Z,10.03
2018-11-14T18:06:17.941Z,11.93
2018-11-14T18:08:46.593Z,12.53
2018-11-14T18:11:17.116Z,10.53
2018-11-14T18:13:47.698Z,10.63
2018-11-14T18:16:16.589Z,11.20
2018-11-14T18:18:45.263Z,11.17
2018-11-14T18:21:13.677Z,10.07
2018-11-14T18:23:42.007Z,10.13
2018-11-14T18:26:10.495Z,10.87
2018-11-14T18:28:39.046Z,41.53
2018-11-14T18:31:07.511Z,17.23
2018-11-14T18:33:35.972Z,17.53
2018-11-14T18:36:04.980Z,13.07
2018-11-14T18:38:35.235Z,15.30
2018-11-14T18:41:05.837Z,19.60
2018-11-14T18:43:34.931Z,11.20
2018-11-14T18:46:03.343Z,9.73
2018-11-14T18:48:31.730Z,10.47
2018-11-14T18:51:00.089Z,10.23
2018-11-14T18:53:28.600Z,12.27
2018-11-14T18:55:56.967Z,13.10
2018-11-14T18:58:25.503Z,11.10
2018-11-14T19:00:53.971Z,13.17
2018-11-14T19:03:22.581Z,11.30
2018-11-14T19:05:51.003Z,12.70
2018-11-14T19:08:19.480Z,17.07
2018-11-14T19:10:48.438Z,24.30
2018-11-14T19:13:16.870Z,16.67
2018-11-14T19:15:45.208Z,13.43
2018-11-14T19:18:13.765Z,11.47
2018-11-14T19:20:42.362Z,19.83
2018-11-14T19:23:11.199Z,14.50
2018-11-14T19:25:39.531Z,13.37
2018-11-14T19:28:08.508Z,11.40
2018-11-14T19:30:38.025Z,10.27
2018-11-14T19:33:06.341Z,9.97
2018-11-14T19:35:34.885Z,8.57
2018-11-14T19:38:03.500Z,8.53
2018-11-14T19:40:34.354Z,8.27
2018-11-14T19:43:03.860Z,7.97
2018-11-14T19:45:33.839Z,9.30
2018-11-14T19:48:03.087Z,8.90
2018-11-14T19:50:34.202Z,9.40
2018-11-14T19:53:04.036Z,9.97
2018-11-14T19:55:33.195Z,8.63
2018-11-14T19:58:03.092Z,9.10
2018-11-14T20:00:33.264Z,8.23
2018-11-14T20:03:01.607Z,8.90
2018-11-14T20:05:30.233Z,8.40
2018-11-14T20:07:59.067Z,8.33
2018-11-14T20:10:30.575Z,8.53
2018-11-14T20:12:59.248Z,9.17
2018-11-14T20:15:29.106Z,11.40
2018-11-14T20:17:57.436Z,12.43
2018-11-14T20:20:27.360Z,14.80
2018-11-14T20:22:55.975Z,15.73
2018-11-14T20:25:24.322Z,9.97
2018-11-14T20:27:53.349Z,10.97
2018-11-14T20:30:23.777Z,10.23
2018-11-14T20:32:53.046Z,10.80
2018-11-14T20:35:22.486Z,11.27
2018-11-14T20:37:50.800Z,13.57
2018-11-14T20:40:20.371Z,11.73
2018-11-14T20:42:49.796Z,9.77
2018-11-14T20:45:20.961Z,10.30
2018-11-14T20:47:49.303Z,10.20
2018-11-14T20:50:21.107Z,9.47
2018-11-14T20:52:52.891Z,10.40
2018-11-14T20:55:21.214Z,10.73
2018-11-14T20:57:49.623Z,10.43
2018-11-14T21:00:24.249Z,10.47
2018-11-14T21:02:52.842Z,10.73
2018-11-14T21:05:21.336Z,10.90
2018-11-14T21:07:49.719Z,11.03
2018-11-14T21:10:19.419Z,11.77
2018-11-14T21:12:48.439Z,11.13
2018-11-14T21:15:19.079Z,9.90
2018-11-14T21:17:47.953Z,9.67
2018-11-14T21:20:16.267Z,9.80
2018-11-14T21:22:44.742Z,10.13
2018-11-14T21:25:16.344Z,10.93
2018-11-14T21:27:45.740Z,10.57
2018-11-14T21:30:17.293Z,10.73
2018-11-14T21:32:46.293Z,10.40
2018-11-14T21:35:18.067Z,10.53
2018-11-14T21:37:47.655Z,10.43
2018-11-14T21:40:16.026Z,14.37
2018-11-14T21:42:45.208Z,13.67
2018-11-14T21:45:15.650Z,14.97
2018-11-14T21:47:49.484Z,13.30
2018-11-14T21:50:19.642Z,13.80
2018-11-14T21:52:48.366Z,13.90
2018-11-14T21:55:17.172Z,14.87
2018-11-14T21:57:45.498Z,15.20
2018-11-14T22:00:16.092Z,14.97
2018-11-14T22:02:45.861Z,20.93
2018-11-14T22:05:14.839Z,17.77
2018-11-14T22:07:43.114Z,15.17
2018-11-14T22:10:15.618Z,14.97
2018-11-14T22:12:44.477Z,13.40
2018-11-14T22:15:13.499Z,14.87
2018-11-14T22:17:41.970Z,14.97
2018-11-14T22:20:12.671Z,14.70
2018-11-14T22:22:41.880Z,15.00
2018-11-14T22:25:10.958Z,15.70
2018-11-14T22:27:39.367Z,15.20
2018-11-14T22:30:10.779Z,14.53
2018-11-14T22:32:39.132Z,14.43
2018-11-14T22:35:08.824Z,14.93
2018-11-14T22:37:37.269Z,14.17
2018-11-14T22:40:06.463Z,14.00
2018-11-14T22:42:34.956Z,14.37
2018-11-14T22:45:03.322Z,13.83
2018-11-14T22:47:31.612Z,13.77
2018-11-14T22:49:59.912Z,13.20
2018-11-14T22:52:28.204Z,13.70
2018-11-14T22:54:56.763Z,13.30
2018-11-14T22:57:25.334Z,13.17
2018-11-14T22:59:53.903Z,13.63
2018-11-14T23:02:22.371Z,13.87
2018-11-14T23:04:50.722Z,13.20
2018-11-14T23:07:18.990Z,13.50
2018-11-14T23:09:47.338Z,13.87
2018-11-14T23:12:15.550Z,13.67
2018-11-14T23:14:43.879Z,14.33
2018-11-14T23:17:12.462Z,12.63
2018-11-14T23:19:40.809Z,12.23
2018-11-14T23:22:09.121Z,13.10
2018-11-14T23:24:37.442Z,12.83
2018-11-14T23:27:06.099Z,12.70
2018-11-14T23:29:34.438Z,12.87
2018-11-14T23:32:02.739Z,12.90
2018-11-14T23:34:31.038Z,12.67
2018-11-14T23:36:59.392Z,14.40
2018-11-14T23:39:27.784Z,12.93
2018-11-14T23:41:56.087Z,13.03
2018-11-14T23:44:24.398Z,13.80
2018-11-14T23:46:52.729Z,13.80
2018-11-14T23:49:21.185Z,13.50
2018-11-14T23:51:49.676Z,13.97
2018-11-14T23:54:17.970Z,14.60
2018-11-14T23:56:46.288Z,14.17
2018-11-14T23:59:14.604Z,14.60
